Capitol Logistics 2120

Operating for AJT



KCVG
Cincinnati/Northern Kentucky International Airport
Covington, Kentucky
KIAH
George Bush Intcntl/Houston Airport
Houston, Texas

Activity Log

Date Flight Route Aircraft Duration
No Flights Yet

Route Details

Aircraft Information
Primary: Boeing 767-300BDSF
Backup: Boeing 757-200SF
Route Data
Distance: 758nm
Duration: 1h 37m
Recm'd Route: INDIE7 TPAKK LIT J131 HUMBO J131 PENBE J131 PXV SARGO3
Origin Wx: KCVG 141852Z 22006KT 10SM FEW041 BKN130 BKN250 14/03 A3005 RMK AO2 SLP171 T01440033
Dest. Wx: KIAH 141936Z 03010KT 1 1/2SM -DZ BR OVC008 24/22 A2992 RMK AO2 LTG DSNT E AND SE DZB35 P0000 T02440222
Notes: